createdAt,value
2023-02-02T00:01:25.214Z,4.34
2023-02-02T00:03:55.973Z,4.10
2023-02-02T00:06:27.060Z,4.26
2023-02-02T00:08:57.529Z,4.00
2023-02-02T00:11:25.570Z,3.93
2023-02-02T00:13:53.488Z,4.11
2023-02-02T00:16:39.842Z,4.21
2023-02-02T00:19:11.229Z,4.24
2023-02-02T00:21:39.156Z,3.93
2023-02-02T00:24:08.412Z,4.29
2023-02-02T00:26:37.152Z,4.19
2023-02-02T00:29:05.992Z,4.27
2023-02-02T00:31:33.655Z,4.25
2023-02-02T00:34:01.733Z,4.26
2023-02-02T00:36:30.899Z,4.09
2023-02-02T00:38:58.498Z,4.13
2023-02-02T00:41:26.447Z,4.24
2023-02-02T00:44:08.357Z,4.09
2023-02-02T00:46:40.266Z,4.22
2023-02-02T00:49:08.051Z,4.22
2023-02-02T00:51:37.393Z,4.15
2023-02-02T00:54:06.430Z,4.34
2023-02-02T00:56:34.723Z,4.29
2023-02-02T00:59:02.315Z,4.22
2023-02-02T01:01:29.955Z,4.16
2023-02-02T01:03:57.536Z,4.16
2023-02-02T01:06:25.957Z,4.14
2023-02-02T01:08:55.243Z,4.11
2023-02-02T01:11:23.806Z,4.16
2023-02-02T01:13:51.383Z,3.90
2023-02-02T01:16:22.755Z,4.08
2023-02-02T01:18:51.263Z,4.07
2023-02-02T01:21:19.588Z,4.16
2023-02-02T01:23:47.455Z,4.07
2023-02-02T01:26:17.999Z,3.95
2023-02-02T01:28:46.224Z,4.06
2023-02-02T01:31:16.088Z,4.08
2023-02-02T01:33:44.743Z,4.24
2023-02-02T01:36:14.326Z,4.13
2023-02-02T01:38:42.587Z,4.22
2023-02-02T01:41:13.921Z,4.32
2023-02-02T01:43:55.914Z,3.98
2023-02-02T01:46:26.292Z,4.25
2023-02-02T01:49:00.852Z,4.17
2023-02-02T01:51:35.696Z,4.11
2023-02-02T01:54:04.129Z,4.18
2023-02-02T01:56:38.987Z,4.15
2023-02-02T01:59:08.653Z,4.28
2023-02-02T02:01:36.579Z,4.15
2023-02-02T02:04:04.375Z,4.12
2023-02-02T02:06:33.179Z,3.92
2023-02-02T02:09:04.686Z,4.17
2023-02-02T02:11:34.456Z,4.21
2023-02-02T02:14:23.064Z,4.02
2023-02-02T02:17:15.469Z,4.11
2023-02-02T02:20:31.442Z,3.95
2023-02-02T02:23:50.615Z,4.03
2023-02-02T02:26:40.093Z,4.17
2023-02-02T02:29:48.905Z,4.15
2023-02-02T02:32:32.525Z,3.96
2023-02-02T02:35:10.252Z,4.16
2023-02-02T02:37:44.244Z,4.17
2023-02-02T02:40:20.772Z,4.07
2023-02-02T02:42:53.569Z,3.99
2023-02-02T02:45:23.116Z,3.87
2023-02-02T02:47:53.269Z,3.88
2023-02-02T02:50:22.981Z,3.94
2023-02-02T02:53:06.474Z,3.79
2023-02-02T02:55:44.081Z,3.89
2023-02-02T02:58:18.216Z,3.97
2023-02-02T03:01:00.740Z,3.89
2023-02-02T03:03:47.162Z,3.81
2023-02-02T03:06:22.437Z,3.82
2023-02-02T03:08:56.518Z,3.65
2023-02-02T03:11:24.116Z,3.85
2023-02-02T03:13:52.408Z,3.68
2023-02-02T03:16:19.989Z,3.90
2023-02-02T03:18:49.458Z,3.88
2023-02-02T03:21:17.190Z,3.89
2023-02-02T03:23:45.283Z,3.75
2023-02-02T03:26:12.975Z,4.00
2023-02-02T03:28:42.266Z,3.78
2023-02-02T03:31:10.218Z,3.54
2023-02-02T03:33:39.398Z,3.92
2023-02-02T03:36:09.072Z,3.78
2023-02-02T03:38:37.320Z,4.00
2023-02-02T03:41:06.062Z,3.64
2023-02-02T03:43:34.227Z,3.53
2023-02-02T03:46:04.483Z,3.83
2023-02-02T03:48:33.443Z,3.71
2023-02-02T03:51:01.062Z,3.79
2023-02-02T03:53:30.322Z,3.60
2023-02-02T03:55:57.944Z,3.71
2023-02-02T03:58:25.530Z,3.94
2023-02-02T04:00:55.477Z,3.67
2023-02-02T04:03:23.099Z,3.72
2023-02-02T04:05:51.271Z,3.50
2023-02-02T04:08:18.898Z,3.85
2023-02-02T04:10:47.919Z,3.77
2023-02-02T04:13:15.945Z,3.76
2023-02-02T04:15:43.565Z,3.75
2023-02-02T04:18:11.160Z,3.81
2023-02-02T04:20:38.894Z,3.76
2023-02-02T04:23:06.762Z,3.61
2023-02-02T04:25:34.343Z,3.51
2023-02-02T04:28:04.075Z,3.76
2023-02-02T04:30:31.983Z,3.94
2023-02-02T04:32:59.870Z,3.84
2023-02-02T04:35:27.533Z,3.86
2023-02-02T04:37:56.347Z,3.98
2023-02-02T04:40:24.172Z,3.85
2023-02-02T04:42:52.215Z,3.82
2023-02-02T04:45:21.801Z,3.85
2023-02-02T04:47:49.421Z,3.63
2023-02-02T04:50:18.015Z,3.82
2023-02-02T04:52:45.616Z,3.86
2023-02-02T04:55:13.548Z,3.76
2023-02-02T04:57:41.468Z,3.82
2023-02-02T05:00:11.312Z,3.95
2023-02-02T05:02:43.162Z,3.92
2023-02-02T05:05:13.688Z,4.00
2023-02-02T05:07:41.589Z,3.97
2023-02-02T05:10:11.715Z,3.70
2023-02-02T05:12:39.335Z,3.91
2023-02-02T05:15:08.629Z,3.86
2023-02-02T05:17:36.262Z,4.15
2023-02-02T05:20:06.005Z,4.14
2023-02-02T05:22:35.117Z,4.11
2023-02-02T05:25:02.945Z,4.21
2023-02-02T05:27:30.516Z,4.07
2023-02-02T05:29:59.176Z,3.86
2023-02-02T05:32:27.974Z,4.09
2023-02-02T05:34:55.901Z,4.28
2023-02-02T05:37:24.883Z,4.21
2023-02-02T05:39:53.933Z,4.13
2023-02-02T05:42:21.523Z,3.74
2023-02-02T05:44:49.681Z,3.85
2023-02-02T05:47:17.270Z,4.01
2023-02-02T05:49:44.959Z,4.22
2023-02-02T05:52:18.561Z,4.20
2023-02-02T05:54:48.370Z,4.04
2023-02-02T05:57:16.365Z,3.74
2023-02-02T05:59:45.225Z,3.67
2023-02-02T06:02:12.849Z,3.92
2023-02-02T06:04:41.107Z,3.79
2023-02-02T06:07:08.695Z,3.61
2023-02-02T06:09:37.341Z,3.71
2023-02-02T06:12:06.974Z,4.12
2023-02-02T06:14:34.954Z,3.98
2023-02-02T06:17:02.680Z,4.00
2023-02-02T06:19:30.988Z,3.93
2023-02-02T06:21:58.556Z,4.10
2023-02-02T06:24:26.410Z,3.97
2023-02-02T06:26:54.689Z,4.00
2023-02-02T06:29:23.882Z,4.42
2023-02-02T06:31:51.620Z,4.10
2023-02-02T06:34:19.399Z,4.33
2023-02-02T06:36:47.026Z,4.16
2023-02-02T06:39:14.626Z,4.04
2023-02-02T06:41:45.350Z,3.86
2023-02-02T06:44:14.740Z,3.79
2023-02-02T06:46:44.407Z,4.06
2023-02-02T06:49:11.977Z,3.73
2023-02-02T06:51:40.039Z,3.62
2023-02-02T06:54:07.684Z,4.13
2023-02-02T06:56:36.416Z,3.71
2023-02-02T06:59:04.035Z,4.11
2023-02-02T07:01:32.611Z,3.66
2023-02-02T07:04:01.553Z,4.07
2023-02-02T07:06:30.612Z,3.80
2023-02-02T07:09:02.339Z,3.84
2023-02-02T07:11:34.590Z,3.90
2023-02-02T07:14:02.935Z,4.05
2023-02-02T07:16:31.492Z,4.13
2023-02-02T07:18:59.100Z,4.20
2023-02-02T07:21:30.189Z,4.11
2023-02-02T07:23:58.672Z,4.19
2023-02-02T07:26:27.906Z,4.04
2023-02-02T07:28:55.801Z,3.91
2023-02-02T07:31:26.231Z,3.94
2023-02-02T07:33:54.803Z,4.28
2023-02-02T07:36:24.759Z,3.66
2023-02-02T07:38:55.210Z,3.96
2023-02-02T07:41:23.959Z,3.86
2023-02-02T07:43:52.478Z,3.92
2023-02-02T07:46:21.322Z,3.77
2023-02-02T07:48:49.432Z,3.70
2023-02-02T07:51:19.776Z,3.74
2023-02-02T07:53:48.665Z,4.06
2023-02-02T07:56:20.607Z,3.96
2023-02-02T07:58:48.463Z,3.91
2023-02-02T08:01:17.248Z,3.85
2023-02-02T08:03:45.393Z,3.69
2023-02-02T08:06:15.722Z,3.93
2023-02-02T08:08:43.312Z,3.82
2023-02-02T08:11:13.312Z,3.76
2023-02-02T08:13:43.383Z,3.47
2023-02-02T08:16:13.134Z,3.60
2023-02-02T08:18:40.867Z,3.56
2023-02-02T08:21:09.659Z,3.53
2023-02-02T08:23:37.698Z,3.42
2023-02-02T08:26:11.417Z,3.68
2023-02-02T08:28:40.075Z,3.57
2023-02-02T08:31:12.467Z,3.36
2023-02-02T08:33:40.118Z,3.74
2023-02-02T08:36:12.429Z,3.93
2023-02-02T08:38:40.132Z,3.58
2023-02-02T08:41:09.591Z,3.43
2023-02-02T08:43:38.132Z,3.76
2023-02-02T08:46:06.446Z,3.54
2023-02-02T08:48:36.585Z,3.43
2023-02-02T08:51:05.901Z,3.56
2023-02-02T08:53:34.273Z,3.59
2023-02-02T08:56:03.993Z,3.51
2023-02-02T08:58:33.742Z,3.71
2023-02-02T09:01:06.578Z,3.93
2023-02-02T09:03:34.245Z,3.74
2023-02-02T09:06:07.162Z,3.71
2023-02-02T09:08:35.414Z,3.87
2023-02-02T09:11:08.474Z,4.09
2023-02-02T09:13:36.617Z,3.91
2023-02-02T09:16:06.243Z,3.94
2023-02-02T09:18:34.088Z,3.82
2023-02-02T09:21:03.271Z,4.29
2023-02-02T09:23:33.524Z,4.29
2023-02-02T09:26:10.997Z,4.24
2023-02-02T09:28:39.567Z,3.89
2023-02-02T09:31:07.724Z,3.63
2023-02-02T09:33:36.047Z,4.23
2023-02-02T09:36:08.683Z,4.13
2023-02-02T09:38:38.314Z,3.86
2023-02-02T09:41:28.990Z,4.22
2023-02-02T09:44:07.545Z,4.12
2023-02-02T09:46:50.196Z,4.26
2023-02-02T09:49:23.579Z,4.23
2023-02-02T09:51:57.397Z,4.39
2023-02-02T09:54:33.324Z,4.25
2023-02-02T09:57:05.978Z,4.38
2023-02-02T09:59:38.189Z,4.56
2023-02-02T10:02:14.487Z,4.21
2023-02-02T10:04:45.020Z,4.49
2023-02-02T10:07:18.691Z,4.18
2023-02-02T10:09:52.195Z,4.15
2023-02-02T10:12:32.693Z,4.08
2023-02-02T10:15:06.413Z,4.23
2023-02-02T10:17:41.726Z,4.51
2023-02-02T10:20:22.228Z,4.60
2023-02-02T10:22:51.446Z,4.51
2023-02-02T10:25:23.688Z,4.73
2023-02-02T10:28:01.987Z,4.60
2023-02-02T10:30:41.816Z,4.57
2023-02-02T10:33:21.323Z,4.57
2023-02-02T10:35:58.057Z,4.82
2023-02-02T10:38:37.863Z,4.81
2023-02-02T10:41:16.353Z,4.91
2023-02-02T10:44:05.173Z,4.96
2023-02-02T10:46:37.256Z,4.71
2023-02-02T10:49:20.195Z,5.00
2023-02-02T10:51:55.104Z,4.85
2023-02-02T10:54:58.185Z,4.91
2023-02-02T10:57:48.371Z,4.54
2023-02-02T11:00:23.875Z,4.91
2023-02-02T11:02:53.368Z,4.85
2023-02-02T11:05:41.736Z,4.79
2023-02-02T11:08:15.480Z,4.90
2023-02-02T11:10:45.011Z,4.76
2023-02-02T11:13:20.316Z,4.54
2023-02-02T11:15:48.383Z,4.68
2023-02-02T11:18:28.280Z,4.49
2023-02-02T11:20:57.199Z,4.66
2023-02-02T11:23:29.089Z,4.60
2023-02-02T11:26:02.520Z,4.91
2023-02-02T11:28:35.648Z,4.96
2023-02-02T11:31:04.477Z,4.80
2023-02-02T11:33:34.193Z,4.70
2023-02-02T11:36:04.211Z,4.40
2023-02-02T11:38:32.778Z,4.64
2023-02-02T11:41:03.743Z,4.53
2023-02-02T11:43:40.801Z,4.53
2023-02-02T11:46:19.631Z,4.88
2023-02-02T11:48:52.857Z,5.05
2023-02-02T11:51:24.644Z,4.53
2023-02-02T11:54:03.864Z,4.91
2023-02-02T11:56:32.027Z,4.74
2023-02-02T11:59:04.257Z,4.48
2023-02-02T12:01:34.837Z,4.42
2023-02-02T12:04:04.503Z,4.38
2023-02-02T12:06:36.823Z,4.73
2023-02-02T12:09:13.026Z,4.63
2023-02-02T12:11:54.484Z,4.68
2023-02-02T12:14:36.538Z,4.88
2023-02-02T12:17:14.907Z,4.32
2023-02-02T12:19:57.508Z,4.83
2023-02-02T12:22:38.501Z,4.69
2023-02-02T12:25:25.185Z,4.74
2023-02-02T12:27:58.639Z,4.43
2023-02-02T12:30:40.615Z,4.64
2023-02-02T12:33:22.248Z,4.69
2023-02-02T12:36:08.482Z,4.72
2023-02-02T12:38:57.664Z,4.81
2023-02-02T12:41:37.694Z,4.80
2023-02-02T12:44:15.108Z,4.71
2023-02-02T12:46:59.857Z,4.64
2023-02-02T12:50:09.586Z,4.74
2023-02-02T12:52:55.989Z,4.35
2023-02-02T12:55:30.705Z,4.71
2023-02-02T12:58:07.671Z,4.78
2023-02-02T13:00:52.628Z,4.61
2023-02-02T13:03:31.863Z,4.73
2023-02-02T13:06:27.134Z,4.58
2023-02-02T13:08:59.654Z,4.42
2023-02-02T13:11:39.147Z,4.41
2023-02-02T13:14:11.144Z,4.52
2023-02-02T13:16:42.460Z,4.71
2023-02-02T13:19:18.582Z,4.60
2023-02-02T13:21:47.718Z,4.77
2023-02-02T13:24:28.617Z,4.52
2023-02-02T13:27:00.292Z,4.52
2023-02-02T13:29:37.909Z,4.60
2023-02-02T13:32:22.514Z,4.76
2023-02-02T13:34:56.756Z,4.46
2023-02-02T13:37:32.072Z,4.50
2023-02-02T13:40:04.729Z,4.60
2023-02-02T13:42:41.927Z,4.71
2023-02-02T13:45:29.651Z,4.54
2023-02-02T13:48:06.755Z,4.35
2023-02-02T13:50:46.064Z,4.80
2023-02-02T13:53:39.599Z,4.37
2023-02-02T13:56:26.510Z,4.41
2023-02-02T13:59:04.756Z,4.53
2023-02-02T14:01:33.655Z,4.27
2023-02-02T14:04:01.966Z,4.68
2023-02-02T14:06:57.995Z,4.65
2023-02-02T14:09:29.172Z,4.80
2023-02-02T14:12:01.579Z,4.79
2023-02-02T14:14:33.351Z,4.77
2023-02-02T14:17:03.626Z,4.63
2023-02-02T14:19:53.767Z,4.54
2023-02-02T14:22:43.016Z,4.56
2023-02-02T14:25:51.553Z,4.50
2023-02-02T14:28:42.010Z,4.61
2023-02-02T14:31:44.400Z,4.49
2023-02-02T14:34:30.463Z,4.46
2023-02-02T14:37:44.594Z,4.19
2023-02-02T14:40:30.845Z,4.43
2023-02-02T14:43:27.944Z,4.47
2023-02-02T14:46:24.473Z,4.59
2023-02-02T14:49:15.012Z,4.45
2023-02-02T14:51:54.070Z,4.50
2023-02-02T14:54:26.401Z,4.30
2023-02-02T14:56:59.091Z,4.63
2023-02-02T14:59:31.805Z,4.38
2023-02-02T15:02:11.423Z,4.39
2023-02-02T15:04:39.460Z,4.62
2023-02-02T15:07:59.335Z,4.63
2023-02-02T15:11:27.477Z,4.66
2023-02-02T15:14:07.555Z,4.64
2023-02-02T15:16:39.395Z,4.59
2023-02-02T15:19:15.324Z,4.72
2023-02-02T15:21:46.960Z,4.83
2023-02-02T15:24:21.487Z,4.64
2023-02-02T15:26:50.947Z,4.47
2023-02-02T15:29:29.848Z,4.59
2023-02-02T15:31:58.306Z,4.73
2023-02-02T15:34:28.734Z,4.81
2023-02-02T15:36:59.377Z,4.72
2023-02-02T15:39:30.955Z,4.51
2023-02-02T15:42:19.693Z,4.67
2023-02-02T15:44:48.647Z,4.63
2023-02-02T15:47:20.674Z,4.63
2023-02-02T15:49:49.501Z,4.35
2023-02-02T15:55:22.691Z,4.54
2023-02-02T15:57:54.173Z,4.58
2023-02-02T16:00:29.301Z,4.39
2023-02-02T16:03:03.245Z,4.28
2023-02-02T16:05:48.570Z,4.60
2023-02-02T16:08:19.314Z,4.10
2023-02-02T16:10:48.985Z,4.45
2023-02-02T16:13:25.124Z,4.37
2023-02-02T16:15:58.794Z,4.29
2023-02-02T16:18:26.629Z,4.62
2023-02-02T16:20:55.648Z,4.53
2023-02-02T16:23:30.028Z,4.47
2023-02-02T16:26:01.236Z,4.35
2023-02-02T16:28:29.808Z,4.47
2023-02-02T16:31:01.585Z,4.56
2023-02-02T16:33:31.433Z,4.49
2023-02-02T16:35:59.529Z,4.70
2023-02-02T16:38:33.175Z,4.49
2023-02-02T16:41:05.851Z,4.60
2023-02-02T16:43:35.929Z,4.65
2023-02-02T16:46:08.785Z,4.70
2023-02-02T16:48:38.203Z,4.70
2023-02-02T16:51:22.503Z,4.59
2023-02-02T16:53:58.182Z,4.59
2023-02-02T16:56:30.179Z,4.52
2023-02-02T16:59:00.839Z,4.41
2023-02-02T17:01:37.803Z,4.43
2023-02-02T17:04:08.182Z,4.50
2023-02-02T17:06:51.352Z,4.64
2023-02-02T17:09:36.004Z,4.56
2023-02-02T17:12:09.348Z,4.40
2023-02-02T17:14:53.384Z,4.45
2023-02-02T17:17:22.553Z,4.46
2023-02-02T17:19:50.343Z,4.41
2023-02-02T17:22:20.904Z,4.48
2023-02-02T17:24:52.114Z,4.61
2023-02-02T17:27:25.077Z,4.47
2023-02-02T17:29:53.951Z,4.21
2023-02-02T17:32:23.700Z,4.49
2023-02-02T17:34:52.339Z,4.29
2023-02-02T17:37:20.107Z,4.56
2023-02-02T17:39:49.053Z,4.58
2023-02-02T17:42:23.514Z,4.45
2023-02-02T17:44:51.383Z,4.38
2023-02-02T17:47:19.028Z,4.31
2023-02-02T17:49:48.578Z,4.29
2023-02-02T17:52:16.163Z,4.39
2023-02-02T17:54:43.949Z,4.26
2023-02-02T17:57:11.547Z,4.18
2023-02-02T17:59:39.491Z,4.05
2023-02-02T18:02:07.140Z,4.21
2023-02-02T18:04:35.116Z,4.07
2023-02-02T18:07:04.073Z,4.24
2023-02-02T18:09:34.430Z,4.23
2023-02-02T18:12:02.071Z,4.08
2023-02-02T18:14:30.460Z,4.23
2023-02-02T18:16:58.046Z,4.02
2023-02-02T18:19:26.197Z,4.13
2023-02-02T18:21:53.792Z,4.22
2023-02-02T18:24:22.760Z,4.23
2023-02-02T18:26:50.357Z,3.97
2023-02-02T18:29:18.719Z,4.23
2023-02-02T18:31:46.748Z,4.30
2023-02-02T18:34:14.418Z,4.06
2023-02-02T18:36:42.325Z,4.34
2023-02-02T18:39:09.929Z,4.16
2023-02-02T18:41:38.936Z,4.23
2023-02-02T18:44:06.551Z,4.13
2023-02-02T18:46:34.502Z,4.09
2023-02-02T18:49:02.254Z,4.35
2023-02-02T18:51:31.639Z,4.34
2023-02-02T18:54:00.336Z,4.32
2023-02-02T18:56:29.458Z,4.19
2023-02-02T18:58:59.106Z,4.19
2023-02-02T19:01:26.914Z,4.09
2023-02-02T19:03:57.025Z,4.26
2023-02-02T19:06:43.685Z,4.38
2023-02-02T19:09:13.562Z,4.22
2023-02-02T19:11:43.845Z,4.02
2023-02-02T19:14:15.118Z,4.31
2023-02-02T19:16:44.896Z,4.39
2023-02-02T19:19:24.180Z,4.24
2023-02-02T19:21:56.090Z,4.25
2023-02-02T19:24:26.543Z,4.17
2023-02-02T19:26:55.883Z,4.09
2023-02-02T19:29:26.471Z,4.05
2023-02-02T19:31:59.988Z,4.18
2023-02-02T19:34:27.617Z,4.28
2023-02-02T19:36:55.567Z,4.31
2023-02-02T19:39:30.701Z,4.29
2023-02-02T19:42:01.323Z,4.40
2023-02-02T19:44:33.970Z,4.31
2023-02-02T19:47:02.928Z,4.29
2023-02-02T19:49:33.706Z,4.23
2023-02-02T19:52:04.684Z,4.10
2023-02-02T19:54:35.500Z,4.14
2023-02-02T19:57:16.089Z,4.20
2023-02-02T19:59:47.987Z,4.16
2023-02-02T20:02:38.167Z,4.23
2023-02-02T20:05:18.139Z,4.06
2023-02-02T20:07:46.251Z,4.28
2023-02-02T20:10:21.192Z,4.28
2023-02-02T20:12:50.319Z,4.33
2023-02-02T20:15:28.430Z,4.24
2023-02-02T20:17:58.777Z,4.24
2023-02-02T20:20:28.716Z,4.17
2023-02-02T20:22:58.264Z,4.34
2023-02-02T20:25:25.953Z,4.71
2023-02-02T20:27:53.666Z,4.57
2023-02-02T20:30:26.732Z,4.66
2023-02-02T20:32:58.033Z,4.43
2023-02-02T20:35:35.818Z,4.56
2023-02-02T20:38:14.211Z,4.51
2023-02-02T20:40:42.228Z,4.50
2023-02-02T20:43:10.190Z,4.58
2023-02-02T20:45:39.183Z,4.64
2023-02-02T20:48:07.071Z,4.66
2023-02-02T20:50:35.193Z,4.62
2023-02-02T20:53:02.818Z,4.84
2023-02-02T20:55:31.519Z,4.78
2023-02-02T20:57:59.809Z,4.58
2023-02-02T21:00:27.840Z,4.38
2023-02-02T21:02:57.776Z,4.69
2023-02-02T21:05:25.629Z,4.47
2023-02-02T21:07:55.299Z,4.47
2023-02-02T21:10:23.485Z,4.36
2023-02-02T21:12:52.077Z,4.38
2023-02-02T21:15:20.010Z,4.36
2023-02-02T21:17:47.815Z,4.62
2023-02-02T21:20:16.849Z,4.52
2023-02-02T21:22:44.589Z,4.65
2023-02-02T21:25:13.016Z,4.63
2023-02-02T21:27:42.198Z,4.53
2023-02-02T21:30:12.131Z,4.65
2023-02-02T21:32:40.223Z,4.42
2023-02-02T21:35:08.217Z,4.54
2023-02-02T21:37:38.280Z,4.36
2023-02-02T21:40:14.316Z,4.64
2023-02-02T21:42:49.030Z,4.88
2023-02-02T21:45:34.616Z,4.73
2023-02-02T21:48:06.319Z,4.81
2023-02-02T21:50:36.397Z,4.77
2023-02-02T21:53:19.172Z,4.81
2023-02-02T21:55:48.015Z,4.61
2023-02-02T21:58:22.207Z,4.65
2023-02-02T22:00:50.690Z,4.65
2023-02-02T22:03:29.011Z,4.90
2023-02-02T22:06:14.096Z,4.95
2023-02-02T22:08:43.709Z,4.79
2023-02-02T22:11:22.781Z,4.71
2023-02-02T22:13:51.803Z,4.74
2023-02-02T22:16:21.459Z,4.80
2023-02-02T22:18:49.566Z,4.55
2023-02-02T22:21:20.913Z,4.81
2023-02-02T22:23:50.622Z,4.89
2023-02-02T22:26:32.113Z,4.89
2023-02-02T22:29:00.530Z,5.02
2023-02-02T22:31:28.234Z,4.92
2023-02-02T22:33:56.067Z,4.72
2023-02-02T22:36:23.668Z,4.51
2023-02-02T22:38:52.776Z,4.95
2023-02-02T22:41:20.403Z,4.64
2023-02-02T22:43:49.109Z,4.88
2023-02-02T22:46:16.736Z,4.66
2023-02-02T22:48:44.938Z,4.75
2023-02-02T22:51:12.571Z,4.93
2023-02-02T22:53:40.224Z,4.75
2023-02-02T22:56:09.394Z,4.82
2023-02-02T22:58:37.313Z,4.90
2023-02-02T23:01:05.235Z,4.73
2023-02-02T23:03:33.756Z,4.76
2023-02-02T23:06:01.479Z,4.82
2023-02-02T23:08:29.145Z,4.93
2023-02-02T23:10:56.777Z,5.14
2023-02-02T23:13:25.987Z,5.01
2023-02-02T23:15:53.907Z,5.12
2023-02-02T23:18:22.140Z,5.16
2023-02-02T23:20:50.685Z,5.17
2023-02-02T23:23:18.272Z,4.99
2023-02-02T23:25:45.946Z,4.80
2023-02-02T23:28:13.568Z,4.83
2023-02-02T23:30:42.979Z,5.11
2023-02-02T23:33:10.767Z,4.97
2023-02-02T23:35:39.060Z,4.90
2023-02-02T23:38:06.628Z,5.00
2023-02-02T23:40:34.551Z,4.95
2023-02-02T23:43:02.224Z,5.13
2023-02-02T23:45:30.203Z,5.05
2023-02-02T23:47:59.276Z,4.93
2023-02-02T23:50:28.111Z,5.06
2023-02-02T23:52:56.147Z,5.07
2023-02-02T23:55:24.450Z,4.92
2023-02-02T23:57:52.127Z,5.18
